sensor_id;sensor_type;location;lat;lon;timestamp;pressure;altitude;pressure_sealevel;temperature;humidity
36834;BME280;48003;52.084;5.224;2023-03-01T00:02:49;103289.00000000001;;;4.14;63.14
36834;BME280;48003;52.084;5.224;2023-03-01T00:04:26;103283.99999999999;;;4.12;63.1
36834;BME280;48003;52.084;5.224;2023-03-01T00:06:04;103288.00000000001;;;4.12;63.25
36834;BME280;48003;52.084;5.224;2023-03-01T00:07:40;103290.00000000001;;;4.09;63.35
36834;BME280;48003;52.084;5.224;2023-03-01T00:11:02;103288.00000000001;;;4.08;63.31
36834;BME280;48003;52.084;5.224;2023-03-01T00:12:39;103289.00000000001;;;4.07;63.27
36834;BME280;48003;52.084;5.224;2023-03-01T00:14:16;103288.00000000001;;;4.03;63.31
36834;BME280;48003;52.084;5.224;2023-03-01T00:15:52;103292.0;;;4.03;63.45
36834;BME280;48003;52.084;5.224;2023-03-01T00:19:05;103289.00000000001;;;4.0;63.64
36834;BME280;48003;52.084;5.224;2023-03-01T00:20:41;103284.99999999999;;;3.99;63.65
36834;BME280;48003;52.084;5.224;2023-03-01T00:22:17;103284.99999999999;;;3.97;63.7
36834;BME280;48003;52.084;5.224;2023-03-01T00:25:31;103283.0;;;3.97;63.58
36834;BME280;48003;52.084;5.224;2023-03-01T00:27:07;103283.99999999999;;;3.93;63.68
36834;BME280;48003;52.084;5.224;2023-03-01T00:28:43;103280.0;;;3.92;63.76
36834;BME280;48003;52.084;5.224;2023-03-01T00:31:56;103278.0;;;3.93;63.78
36834;BME280;48003;52.084;5.224;2023-03-01T00:33:33;103274.0;;;3.92;63.85
36834;BME280;48003;52.084;5.224;2023-03-01T00:35:09;103275.0;;;3.91;63.87
36834;BME280;48003;52.084;5.224;2023-03-01T00:38:22;103274.0;;;3.9;63.99
36834;BME280;48003;52.084;5.224;2023-03-01T00:39:58;103270.0;;;3.9;64.05
36834;BME280;48003;52.084;5.224;2023-03-01T00:41:34;103268.0;;;3.87;64.02
36834;BME280;48003;52.084;5.224;2023-03-01T00:43:10;103267.0;;;3.85;64.03
36834;BME280;48003;52.084;5.224;2023-03-01T00:46:25;103269.0;;;3.87;64.09
36834;BME280;48003;52.084;5.224;2023-03-01T00:48:02;103271.0;;;3.85;64.19
36834;BME280;48003;52.084;5.224;2023-03-01T00:49:38;103274.0;;;3.86;64.19
36834;BME280;48003;52.084;5.224;2023-03-01T00:52:53;103274.0;;;3.82;64.25
36834;BME280;48003;52.084;5.224;2023-03-01T00:54:30;103270.0;;;3.76;64.3
36834;BME280;48003;52.084;5.224;2023-03-01T00:56:09;103272.0;;;3.74;64.47
36834;BME280;48003;52.084;5.224;2023-03-01T00:57:45;103272.0;;;3.76;64.58
36834;BME280;48003;52.084;5.224;2023-03-01T01:00:58;103270.0;;;3.75;64.52
36834;BME280;48003;52.084;5.224;2023-03-01T01:02:34;103267.0;;;3.76;64.62
36834;BME280;48003;52.084;5.224;2023-03-01T01:04:12;103268.0;;;3.79;64.77
36834;BME280;48003;52.084;5.224;2023-03-01T01:07:26;103265.00000000001;;;3.78;64.84
36834;BME280;48003;52.084;5.224;2023-03-01T01:09:02;103268.0;;;3.78;65.1
36834;BME280;48003;52.084;5.224;2023-03-01T01:10:43;103267.0;;;3.77;65.36
36834;BME280;48003;52.084;5.224;2023-03-01T01:13:57;103261.99999999999;;;3.79;65.41
36834;BME280;48003;52.084;5.224;2023-03-01T01:15:34;103261.99999999999;;;3.82;65.35
36834;BME280;48003;52.084;5.224;2023-03-01T01:17:10;103261.99999999999;;;3.83;65.47
36834;BME280;48003;52.084;5.224;2023-03-01T01:18:46;103255.0;;;3.83;65.44
36834;BME280;48003;52.084;5.224;2023-03-01T01:21:58;103254.0;;;3.83;65.58
36834;BME280;48003;52.084;5.224;2023-03-01T01:23:36;103248.0;;;3.82;65.52
36834;BME280;48003;52.084;5.224;2023-03-01T01:25:12;103245.0;;;3.78;65.41
36834;BME280;48003;52.084;5.224;2023-03-01T01:28:25;103241.00000000001;;;3.75;65.5
36834;BME280;48003;52.084;5.224;2023-03-01T01:30:02;103238.00000000001;;;3.72;65.59
36834;BME280;48003;52.084;5.224;2023-03-01T01:31:40;103234.99999999999;;;3.71;65.7
36834;BME280;48003;52.084;5.224;2023-03-01T01:33:17;103229.0;;;3.72;65.69
36834;BME280;48003;52.084;5.224;2023-03-01T01:36:31;103228.0;;;3.7;65.63
36834;BME280;48003;52.084;5.224;2023-03-01T01:38:09;103227.0;;;3.69;65.64
36834;BME280;48003;52.084;5.224;2023-03-01T01:39:45;103224.0;;;3.7;65.7
36834;BME280;48003;52.084;5.224;2023-03-01T01:42:59;103223.0;;;3.66;65.63
36834;BME280;48003;52.084;5.224;2023-03-01T01:44:35;103219.0;;;3.62;65.69
36834;BME280;48003;52.084;5.224;2023-03-01T01:46:20;103227.0;;;3.6;65.77
36834;BME280;48003;52.084;5.224;2023-03-01T01:48:00;103229.0;;;3.61;65.77
36834;BME280;48003;52.084;5.224;2023-03-01T01:51:24;103224.0;;;3.57;65.81
36834;BME280;48003;52.084;5.224;2023-03-01T01:53:01;103228.0;;;3.51;65.92
36834;BME280;48003;52.084;5.224;2023-03-01T01:54:42;103224.0;;;3.49;66.06
36834;BME280;48003;52.084;5.224;2023-03-01T01:56:23;103222.0;;;3.47;66.08
36834;BME280;48003;52.084;5.224;2023-03-01T01:59:47;103217.0;;;3.42;66.19
36834;BME280;48003;52.084;5.224;2023-03-01T02:01:26;103209.99999999999;;;3.37;66.41
36834;BME280;48003;52.084;5.224;2023-03-01T02:03:05;103218.0;;;3.33;66.52
36834;BME280;48003;52.084;5.224;2023-03-01T02:08:06;103214.00000000001;;;3.37;66.48
36834;BME280;48003;52.084;5.224;2023-03-01T02:09:46;103214.00000000001;;;3.3;66.52
36834;BME280;48003;52.084;5.224;2023-03-01T02:11:25;103204.0;;;3.26;66.59
36834;BME280;48003;52.084;5.224;2023-03-01T02:13:03;103209.99999999999;;;3.23;66.77
36834;BME280;48003;52.084;5.224;2023-03-01T02:16:17;103208.0;;;3.23;66.78
36834;BME280;48003;52.084;5.224;2023-03-01T02:17:54;103207.0;;;3.26;66.8
36834;BME280;48003;52.084;5.224;2023-03-01T02:19:54;103208.99999999999;;;3.26;66.78
36834;BME280;48003;52.084;5.224;2023-03-01T02:21:44;103214.00000000001;;;3.27;66.89
36834;BME280;48003;52.084;5.224;2023-03-01T02:25:10;103209.99999999999;;;3.24;66.89
36834;BME280;48003;52.084;5.224;2023-03-01T02:26:53;103209.99999999999;;;3.21;67.13
36834;BME280;48003;52.084;5.224;2023-03-01T02:28:32;103208.99999999999;;;3.22;67.14
36834;BME280;48003;52.084;5.224;2023-03-01T02:30:10;103207.0;;;3.19;67.12
36834;BME280;48003;52.084;5.224;2023-03-01T02:33:25;103208.0;;;3.19;67.25
36834;BME280;48003;52.084;5.224;2023-03-01T02:35:02;103207.0;;;3.15;67.27
36834;BME280;48003;52.084;5.224;2023-03-01T02:36:40;103206.0;;;3.15;67.22
36834;BME280;48003;52.084;5.224;2023-03-01T02:38:18;103204.0;;;3.14;67.33
36834;BME280;48003;52.084;5.224;2023-03-01T02:41:39;103203.0;;;3.11;67.38
36834;BME280;48003;52.084;5.224;2023-03-01T02:43:19;103193.0;;;3.07;67.42
36834;BME280;48003;52.084;5.224;2023-03-01T02:44:58;103200.0;;;3.06;67.47
36834;BME280;48003;52.084;5.224;2023-03-01T02:46:42;103195.0;;;3.07;67.49
36834;BME280;48003;52.084;5.224;2023-03-01T02:49:55;103186.99999999999;;;3.05;67.5
36834;BME280;48003;52.084;5.224;2023-03-01T02:51:41;103189.00000000001;;;3.0;67.37
36834;BME280;48003;52.084;5.224;2023-03-01T02:53:28;103182.0;;;2.97;67.52
36834;BME280;48003;52.084;5.224;2023-03-01T02:55:11;103181.0;;;2.98;67.39
36834;BME280;48003;52.084;5.224;2023-03-01T02:58:27;103180.0;;;2.96;67.44
36834;BME280;48003;52.084;5.224;2023-03-01T03:00:06;103176.0;;;2.94;67.47
36834;BME280;48003;52.084;5.224;2023-03-01T03:01:44;103177.0;;;2.9;67.69
36834;BME280;48003;52.084;5.224;2023-03-01T03:03:21;103175.0;;;2.87;67.86
36834;BME280;48003;52.084;5.224;2023-03-01T03:06:34;103174.0;;;2.85;67.83
36834;BME280;48003;52.084;5.224;2023-03-01T03:08:10;103172.0;;;2.85;67.95
36834;BME280;48003;52.084;5.224;2023-03-01T03:09:46;103174.0;;;2.86;67.78
36834;BME280;48003;52.084;5.224;2023-03-01T03:13:01;103171.0;;;2.83;67.94
36834;BME280;48003;52.084;5.224;2023-03-01T03:14:37;103173.0;;;2.86;67.72
36834;BME280;48003;52.084;5.224;2023-03-01T03:16:14;103172.0;;;2.83;67.75
36834;BME280;48003;52.084;5.224;2023-03-01T03:19:28;103173.0;;;2.83;67.77
36834;BME280;48003;52.084;5.224;2023-03-01T03:21:07;103176.0;;;2.81;67.74
36834;BME280;48003;52.084;5.224;2023-03-01T03:22:43;103175.0;;;2.77;67.94
36834;BME280;48003;52.084;5.224;2023-03-01T03:24:19;103167.0;;;2.75;68.02
36834;BME280;48003;52.084;5.224;2023-03-01T03:27:32;103168.0;;;2.76;68.1
36834;BME280;48003;52.084;5.224;2023-03-01T03:29:08;103163.00000000001;;;2.76;67.94
36834;BME280;48003;52.084;5.224;2023-03-01T03:30:44;103159.99999999999;;;2.71;68.05
36834;BME280;48003;52.084;5.224;2023-03-01T03:33:56;103154.0;;;2.69;67.99
36834;BME280;48003;52.084;5.224;2023-03-01T03:35:37;103152.0;;;2.68;67.98
36834;BME280;48003;52.084;5.224;2023-03-01T03:37:16;103156.0;;;2.67;67.94
36834;BME280;48003;52.084;5.224;2023-03-01T03:38:52;103156.0;;;2.66;68.05
36834;BME280;48003;52.084;5.224;2023-03-01T03:42:08;103158.0;;;2.64;68.17
36834;BME280;48003;52.084;5.224;2023-03-01T03:43:44;103152.0;;;2.64;68.11
36834;BME280;48003;52.084;5.224;2023-03-01T03:45:20;103154.0;;;2.62;68.14
36834;BME280;48003;52.084;5.224;2023-03-01T03:48:33;103155.0;;;2.62;68.02
36834;BME280;48003;52.084;5.224;2023-03-01T03:50:11;103155.0;;;2.59;68.16
36834;BME280;48003;52.084;5.224;2023-03-01T03:51:48;103155.0;;;2.58;68.19
36834;BME280;48003;52.084;5.224;2023-03-01T03:55:04;103150.0;;;2.56;68.13
36834;BME280;48003;52.084;5.224;2023-03-01T03:56:40;103147.0;;;2.52;68.27
36834;BME280;48003;52.084;5.224;2023-03-01T03:58:18;103144.0;;;2.5;68.19
36834;BME280;48003;52.084;5.224;2023-03-01T03:59:54;103143.0;;;2.46;68.13
36834;BME280;48003;52.084;5.224;2023-03-01T04:03:07;103145.0;;;2.39;68.05
36834;BME280;48003;52.084;5.224;2023-03-01T04:04:45;103143.0;;;2.32;68.02
36834;BME280;48003;52.084;5.224;2023-03-01T04:06:22;103143.0;;;2.27;68.25
36834;BME280;48003;52.084;5.224;2023-03-01T04:09:35;103147.0;;;2.25;68.61
36834;BME280;48003;52.084;5.224;2023-03-01T04:11:12;103150.0;;;2.23;68.8
36834;BME280;48003;52.084;5.224;2023-03-01T04:12:49;103154.0;;;2.23;68.83
36834;BME280;48003;52.084;5.224;2023-03-01T04:14:25;103157.0;;;2.16;68.94
36834;BME280;48003;52.084;5.224;2023-03-01T04:17:37;103154.0;;;2.16;68.97
36834;BME280;48003;52.084;5.224;2023-03-01T04:19:13;103152.0;;;2.14;68.99
36834;BME280;48003;52.084;5.224;2023-03-01T04:20:49;103154.0;;;2.15;69.16
36834;BME280;48003;52.084;5.224;2023-03-01T04:24:03;103156.0;;;2.19;69.08
36834;BME280;48003;52.084;5.224;2023-03-01T04:25:41;103156.0;;;2.19;69.16
36834;BME280;48003;52.084;5.224;2023-03-01T04:27:17;103150.0;;;2.21;68.95
36834;BME280;48003;52.084;5.224;2023-03-01T04:30:30;103147.0;;;2.21;69.0
36834;BME280;48003;52.084;5.224;2023-03-01T04:32:06;103148.0;;;2.21;69.09
36834;BME280;48003;52.084;5.224;2023-03-01T04:33:44;103147.0;;;2.19;69.05
36834;BME280;48003;52.084;5.224;2023-03-01T04:35:20;103157.0;;;2.19;68.72
36834;BME280;48003;52.084;5.224;2023-03-01T04:38:33;103154.0;;;2.16;68.53
36834;BME280;48003;52.084;5.224;2023-03-01T04:40:10;103158.0;;;2.19;68.58
36834;BME280;48003;52.084;5.224;2023-03-01T04:41:46;103157.0;;;2.19;68.47
36834;BME280;48003;52.084;5.224;2023-03-01T04:44:59;103156.0;;;2.15;68.41
36834;BME280;48003;52.084;5.224;2023-03-01T04:46:36;103149.0;;;2.16;68.36
36834;BME280;48003;52.084;5.224;2023-03-01T04:48:12;103145.0;;;2.11;68.22
36834;BME280;48003;52.084;5.224;2023-03-01T04:51:25;103143.0;;;2.07;68.14
36834;BME280;48003;52.084;5.224;2023-03-01T04:53:02;103142.0;;;1.99;68.17
36834;BME280;48003;52.084;5.224;2023-03-01T04:54:38;103134.99999999999;;;1.94;68.5
36834;BME280;48003;52.084;5.224;2023-03-01T04:56:15;103133.99999999999;;;1.92;68.39
36834;BME280;48003;52.084;5.224;2023-03-01T04:59:29;103128.0;;;1.94;68.78
36834;BME280;48003;52.084;5.224;2023-03-01T05:01:08;103126.0;;;1.97;68.91
36834;BME280;48003;52.084;5.224;2023-03-01T05:02:48;103122.0;;;1.96;68.69
36834;BME280;48003;52.084;5.224;2023-03-01T05:06:00;103121.0;;;1.93;68.36
36834;BME280;48003;52.084;5.224;2023-03-01T05:07:36;103122.0;;;1.89;68.48
36834;BME280;48003;52.084;5.224;2023-03-01T05:09:12;103120.0;;;1.91;68.69
36834;BME280;48003;52.084;5.224;2023-03-01T05:12:28;103117.0;;;1.92;69.0
36834;BME280;48003;52.084;5.224;2023-03-01T05:14:05;103115.00000000001;;;1.93;69.0
36834;BME280;48003;52.084;5.224;2023-03-01T05:15:42;103108.99999999999;;;1.92;69.0
36834;BME280;48003;52.084;5.224;2023-03-01T05:17:18;103108.99999999999;;;1.91;68.45
36834;BME280;48003;52.084;5.224;2023-03-01T05:20:30;103105.0;;;1.88;68.23
36834;BME280;48003;52.084;5.224;2023-03-01T05:22:07;103107.0;;;1.84;68.19
36834;BME280;48003;52.084;5.224;2023-03-01T05:23:43;103101.0;;;1.84;68.49
36834;BME280;48003;52.084;5.224;2023-03-01T05:26:57;103098.0;;;1.86;68.37
36834;BME280;48003;52.084;5.224;2023-03-01T05:28:35;103090.00000000001;;;1.87;68.5
36834;BME280;48003;52.084;5.224;2023-03-01T05:30:12;103091.00000000001;;;1.87;68.72
36834;BME280;48003;52.084;5.224;2023-03-01T05:31:48;103084.99999999999;;;1.84;68.53
36834;BME280;48003;52.084;5.224;2023-03-01T05:35:03;103089.00000000001;;;1.83;68.38
36834;BME280;48003;52.084;5.224;2023-03-01T05:36:40;103079.0;;;1.77;68.34
36834;BME280;48003;52.084;5.224;2023-03-01T05:38:16;103083.99999999999;;;1.7;68.5
36834;BME280;48003;52.084;5.224;2023-03-01T05:41:28;103082.0;;;1.69;68.67
36834;BME280;48003;52.084;5.224;2023-03-01T05:43:05;103080.0;;;1.7;68.86
36834;BME280;48003;52.084;5.224;2023-03-01T05:44:41;103070.0;;;1.69;68.53
36834;BME280;48003;52.084;5.224;2023-03-01T05:47:54;103070.0;;;1.65;68.58
36834;BME280;48003;52.084;5.224;2023-03-01T05:49:31;103068.0;;;1.68;68.86
36834;BME280;48003;52.084;5.224;2023-03-01T05:51:07;103066.00000000001;;;1.71;69.08
36834;BME280;48003;52.084;5.224;2023-03-01T05:52:44;103063.00000000001;;;1.74;69.12
36834;BME280;48003;52.084;5.224;2023-03-01T05:55:59;103065.00000000001;;;1.74;69.11
36834;BME280;48003;52.084;5.224;2023-03-01T05:57:35;103063.00000000001;;;1.72;69.11
36834;BME280;48003;52.084;5.224;2023-03-01T05:59:11;103064.00000000001;;;1.71;68.94
36834;BME280;48003;52.084;5.224;2023-03-01T06:02:24;103061.99999999999;;;1.72;68.92
36834;BME280;48003;52.084;5.224;2023-03-01T06:04:01;103058.0;;;1.71;69.02
36834;BME280;48003;52.084;5.224;2023-03-01T06:05:38;103056.0;;;1.7;68.97
36834;BME280;48003;52.084;5.224;2023-03-01T06:08:52;103059.99999999999;;;1.69;69.0
36834;BME280;48003;52.084;5.224;2023-03-01T06:10:29;103066.00000000001;;;1.67;68.92
36834;BME280;48003;52.084;5.224;2023-03-01T06:12:05;103067.0;;;1.65;68.94
36834;BME280;48003;52.084;5.224;2023-03-01T06:13:43;103068.0;;;1.62;68.92
36834;BME280;48003;52.084;5.224;2023-03-01T06:16:57;103065.00000000001;;;1.64;68.88
36834;BME280;48003;52.084;5.224;2023-03-01T06:18:34;103067.0;;;1.6;68.94
36834;BME280;48003;52.084;5.224;2023-03-01T06:20:13;103067.0;;;1.59;69.05
36834;BME280;48003;52.084;5.224;2023-03-01T06:23:26;103067.0;;;1.55;68.88
36834;BME280;48003;52.084;5.224;2023-03-01T06:25:03;103071.0;;;1.53;68.97
36834;BME280;48003;52.084;5.224;2023-03-01T06:26:40;103068.0;;;1.54;69.13
36834;BME280;48003;52.084;5.224;2023-03-01T06:28:16;103076.0;;;1.53;69.06
36834;BME280;48003;52.084;5.224;2023-03-01T06:31:29;103076.0;;;1.47;68.83
36834;BME280;48003;52.084;5.224;2023-03-01T06:33:05;103072.0;;;1.41;69.08
36834;BME280;48003;52.084;5.224;2023-03-01T06:34:41;103075.0;;;1.42;69.19
36834;BME280;48003;52.084;5.224;2023-03-01T06:37:53;103072.0;;;1.45;69.33
36834;BME280;48003;52.084;5.224;2023-03-01T06:39:30;103076.0;;;1.46;69.47
36834;BME280;48003;52.084;5.224;2023-03-01T06:41:07;103077.0;;;1.48;69.58
36834;BME280;48003;52.084;5.224;2023-03-01T06:46:04;103074.0;;;1.49;69.56
36834;BME280;48003;52.084;5.224;2023-03-01T06:47:40;103073.0;;;1.48;69.53
36834;BME280;48003;52.084;5.224;2023-03-01T06:49:17;103073.0;;;1.49;69.62
36834;BME280;48003;52.084;5.224;2023-03-01T06:52:30;103074.0;;;1.53;69.55
36834;BME280;48003;52.084;5.224;2023-03-01T06:54:07;103078.0;;;1.51;69.41
36834;BME280;48003;52.084;5.224;2023-03-01T06:55:43;103074.0;;;1.51;69.45
36834;BME280;48003;52.084;5.224;2023-03-01T06:58:55;103077.0;;;1.5;69.44
36834;BME280;48003;52.084;5.224;2023-03-01T07:00:32;103076.0;;;1.5;69.42
36834;BME280;48003;52.084;5.224;2023-03-01T07:02:10;103073.0;;;1.51;69.56
36834;BME280;48003;52.084;5.224;2023-03-01T07:05:23;103073.0;;;1.52;69.64
36834;BME280;48003;52.084;5.224;2023-03-01T07:06:59;103071.0;;;1.52;69.69
36834;BME280;48003;52.084;5.224;2023-03-01T07:10:12;103073.0;;;1.56;69.95
36834;BME280;48003;52.084;5.224;2023-03-01T07:13:26;103071.0;;;1.62;69.91
36834;BME280;48003;52.084;5.224;2023-03-01T07:15:03;103067.0;;;1.69;69.89
36834;BME280;48003;52.084;5.224;2023-03-01T07:16:40;103069.0;;;1.73;69.84
36834;BME280;48003;52.084;5.224;2023-03-01T07:19:53;103069.0;;;1.78;69.8
36834;BME280;48003;52.084;5.224;2023-03-01T07:21:29;103073.0;;;1.77;69.72
36834;BME280;48003;52.084;5.224;2023-03-01T07:23:06;103075.0;;;1.79;69.72
36834;BME280;48003;52.084;5.224;2023-03-01T07:26:19;103084.99999999999;;;1.8;69.8
36834;BME280;48003;52.084;5.224;2023-03-01T07:27:55;103082.0;;;1.82;69.97
36834;BME280;48003;52.084;5.224;2023-03-01T07:29:31;103083.99999999999;;;1.83;70.08
36834;BME280;48003;52.084;5.224;2023-03-01T07:31:07;103084.99999999999;;;1.87;70.12
36834;BME280;48003;52.084;5.224;2023-03-01T07:34:20;103084.99999999999;;;1.92;70.11
36834;BME280;48003;52.084;5.224;2023-03-01T07:35:57;103083.0;;;1.94;70.17
36834;BME280;48003;52.084;5.224;2023-03-01T07:37:33;103086.99999999999;;;2.0;70.19
36834;BME280;48003;52.084;5.224;2023-03-01T07:40:46;103090.00000000001;;;2.04;70.14
36834;BME280;48003;52.084;5.224;2023-03-01T07:42:23;103089.00000000001;;;2.1;70.19
36834;BME280;48003;52.084;5.224;2023-03-01T07:43:59;103083.0;;;2.16;70.22
36834;BME280;48003;52.084;5.224;2023-03-01T07:47:11;103083.99999999999;;;2.25;69.97
36834;BME280;48003;52.084;5.224;2023-03-01T07:48:47;103086.99999999999;;;2.31;69.77
36834;BME280;48003;52.084;5.224;2023-03-01T07:50:23;103091.00000000001;;;2.38;69.64
36834;BME280;48003;52.084;5.224;2023-03-01T07:51:59;103091.00000000001;;;2.42;69.63
36834;BME280;48003;52.084;5.224;2023-03-01T07:55:14;103098.0;;;2.48;69.77
36834;BME280;48003;52.084;5.224;2023-03-01T07:56:50;103094.0;;;2.54;69.81
36834;BME280;48003;52.084;5.224;2023-03-01T07:58:26;103092.0;;;2.57;69.86
36834;BME280;48003;52.084;5.224;2023-03-01T08:01:41;103092.0;;;2.6;69.8
36834;BME280;48003;52.084;5.224;2023-03-01T08:03:17;103090.00000000001;;;2.67;69.62
36834;BME280;48003;52.084;5.224;2023-03-01T08:04:53;103092.0;;;2.73;69.47
36834;BME280;48003;52.084;5.224;2023-03-01T08:08:05;103091.00000000001;;;2.8;69.27
36834;BME280;48003;52.084;5.224;2023-03-01T08:09:42;103086.99999999999;;;2.85;69.22
36834;BME280;48003;52.084;5.224;2023-03-01T08:11:18;103093.0;;;2.94;69.06
36834;BME280;48003;52.084;5.224;2023-03-01T08:12:54;103090.00000000001;;;3.02;68.86
36834;BME280;48003;52.084;5.224;2023-03-01T08:16:08;103083.99999999999;;;3.08;68.69
36834;BME280;48003;52.084;5.224;2023-03-01T08:17:48;103083.0;;;3.15;68.48
36834;BME280;48003;52.084;5.224;2023-03-01T08:19:25;103081.0;;;3.2;68.23
36834;BME280;48003;52.084;5.224;2023-03-01T08:22:40;103083.0;;;3.25;68.08
36834;BME280;48003;52.084;5.224;2023-03-01T08:24:16;103081.0;;;3.29;67.75
36834;BME280;48003;52.084;5.224;2023-03-01T08:25:52;103077.0;;;3.33;67.67
36834;BME280;48003;52.084;5.224;2023-03-01T08:29:05;103080.0;;;3.41;67.44
36834;BME280;48003;52.084;5.224;2023-03-01T08:30:41;103080.0;;;3.45;67.2
36834;BME280;48003;52.084;5.224;2023-03-01T08:32:17;103080.0;;;3.57;67.08
36834;BME280;48003;52.084;5.224;2023-03-01T08:33:56;103074.0;;;3.58;66.86
36834;BME280;48003;52.084;5.224;2023-03-01T08:37:09;103079.0;;;3.69;66.69
36834;BME280;48003;52.084;5.224;2023-03-01T08:38:45;103082.0;;;3.78;66.5
36834;BME280;48003;52.084;5.224;2023-03-01T08:40:22;103076.0;;;3.89;65.97
36834;BME280;48003;52.084;5.224;2023-03-01T08:45:11;103073.0;;;4.05;65.67
36834;BME280;48003;52.084;5.224;2023-03-01T08:46:48;103069.0;;;4.13;65.31
36834;BME280;48003;52.084;5.224;2023-03-01T08:50:01;103068.0;;;4.22;64.88
36834;BME280;48003;52.084;5.224;2023-03-01T08:51:39;103061.99999999999;;;4.32;64.63
36834;BME280;48003;52.084;5.224;2023-03-01T08:53:15;103061.99999999999;;;4.33;64.33
36834;BME280;48003;52.084;5.224;2023-03-01T08:54:51;103059.99999999999;;;4.49;64.24
36834;BME280;48003;52.084;5.224;2023-03-01T08:58:03;103054.0;;;4.59;63.59
36834;BME280;48003;52.084;5.224;2023-03-01T08:59:40;103052.0;;;4.78;62.8
36834;BME280;48003;52.084;5.224;2023-03-01T09:01:18;103046.0;;;4.84;62.54
36834;BME280;48003;52.084;5.224;2023-03-01T09:04:31;103044.0;;;4.99;61.7
36834;BME280;48003;52.084;5.224;2023-03-01T09:06:07;103042.0;;;5.04;61.6
36834;BME280;48003;52.084;5.224;2023-03-01T09:07:44;103043.0;;;5.15;61.41
36834;BME280;48003;52.084;5.224;2023-03-01T09:09:20;103039.00000000001;;;5.16;60.37
36834;BME280;48003;52.084;5.224;2023-03-01T09:12:33;103033.0;;;5.24;60.45
36834;BME280;48003;52.084;5.224;2023-03-01T09:14:09;103032.0;;;5.39;60.42
36834;BME280;48003;52.084;5.224;2023-03-01T09:15:45;103030.0;;;5.55;59.71
36834;BME280;48003;52.084;5.224;2023-03-01T09:18:57;103022.0;;;5.58;59.63
36834;BME280;48003;52.084;5.224;2023-03-01T09:20:34;103019.0;;;5.62;58.31
36834;BME280;48003;52.084;5.224;2023-03-01T09:22:10;103021.0;;;5.62;57.01
36834;BME280;48003;52.084;5.224;2023-03-01T09:25:24;103015.00000000001;;;5.69;56.13
36834;BME280;48003;52.084;5.224;2023-03-01T09:27:00;103017.0;;;5.8;56.24
36834;BME280;48003;52.084;5.224;2023-03-01T09:28:37;103017.0;;;5.9;56.23
36834;BME280;48003;52.084;5.224;2023-03-01T09:31:50;103008.0;;;5.99;56.07
36834;BME280;48003;52.084;5.224;2023-03-01T09:33:26;103007.0;;;6.11;55.5
36834;BME280;48003;52.084;5.224;2023-03-01T09:35:04;102996.0;;;6.13;53.75
36834;BME280;48003;52.084;5.224;2023-03-01T09:36:40;102992.0;;;6.15;53.67
36834;BME280;48003;52.084;5.224;2023-03-01T09:39:52;102994.0;;;6.19;53.6
36834;BME280;48003;52.084;5.224;2023-03-01T09:41:48;102988.00000000001;;;6.31;52.48
36834;BME280;48003;52.084;5.224;2023-03-01T09:43:40;102984.99999999999;;;6.41;52.7
36834;BME280;48003;52.084;5.224;2023-03-01T09:45:29;102989.00000000001;;;6.51;51.78
36834;BME280;48003;52.084;5.224;2023-03-01T09:47:12;102988.00000000001;;;6.57;52.18
36834;BME280;48003;52.084;5.224;2023-03-01T09:50:39;102986.99999999999;;;6.62;51.85
36834;BME280;48003;52.084;5.224;2023-03-01T09:52:23;102983.0;;;6.68;50.79
36834;BME280;48003;52.084;5.224;2023-03-01T09:54:05;102989.00000000001;;;6.71;50.47
36834;BME280;48003;52.084;5.224;2023-03-01T09:55:44;102989.00000000001;;;6.8;50.27
36834;BME280;48003;52.084;5.224;2023-03-01T09:59:17;102986.99999999999;;;6.87;50.52
36834;BME280;48003;52.084;5.224;2023-03-01T10:01:04;102989.00000000001;;;6.96;50.22
36834;BME280;48003;52.084;5.224;2023-03-01T10:02:49;102996.0;;;6.97;50.56
36834;BME280;48003;52.084;5.224;2023-03-01T10:04:35;102995.0;;;7.02;49.51
36834;BME280;48003;52.084;5.224;2023-03-01T10:06:21;102997.0;;;7.16;49.46
36834;BME280;48003;52.084;5.224;2023-03-01T10:08:06;102996.0;;;7.33;49.86
36834;BME280;48003;52.084;5.224;2023-03-01T10:10:05;102999.0;;;7.35;49.09
36834;BME280;48003;52.084;5.224;2023-03-01T10:13:25;102999.0;;;7.46;48.89
36834;BME280;48003;52.084;5.224;2023-03-01T10:15:07;102997.0;;;7.54;49.1
36834;BME280;48003;52.084;5.224;2023-03-01T10:16:51;102996.0;;;7.56;48.64
36834;BME280;48003;52.084;5.224;2023-03-01T10:18:30;102992.0;;;7.73;48.75
36834;BME280;48003;52.084;5.224;2023-03-01T10:22:03;102993.0;;;7.7;47.69
36834;BME280;48003;52.084;5.224;2023-03-01T10:23:46;102992.0;;;7.73;47.48
36834;BME280;48003;52.084;5.224;2023-03-01T10:25:42;102975.0;;;7.76;47.35
36834;BME280;48003;52.084;5.224;2023-03-01T10:27:24;102974.0;;;7.85;47.17
36834;BME280;48003;52.084;5.224;2023-03-01T10:32:18;102971.0;;;7.74;47.3
36834;BME280;48003;52.084;5.224;2023-03-01T10:33:55;102973.0;;;7.94;47.29
36834;BME280;48003;52.084;5.224;2023-03-01T10:35:33;102959.99999999999;;;8.03;47.32
36834;BME280;48003;52.084;5.224;2023-03-01T10:38:51;102964.00000000001;;;8.09;47.46
36834;BME280;48003;52.084;5.224;2023-03-01T10:40:28;102964.00000000001;;;8.23;47.41
36834;BME280;48003;52.084;5.224;2023-03-01T10:42:05;102965.00000000001;;;8.2;46.72
36834;BME280;48003;52.084;5.224;2023-03-01T10:43:55;102958.0;;;8.33;46.07
36834;BME280;48003;52.084;5.224;2023-03-01T10:47:16;102964.00000000001;;;8.33;45.69
36834;BME280;48003;52.084;5.224;2023-03-01T10:49:06;102958.0;;;8.32;44.66
36834;BME280;48003;52.084;5.224;2023-03-01T10:51:06;102954.0;;;8.33;43.52
36834;BME280;48003;52.084;5.224;2023-03-01T10:52:56;102953.0;;;8.26;43.63
36834;BME280;48003;52.084;5.224;2023-03-01T10:54:34;102951.0;;;8.38;43.9
36834;BME280;48003;52.084;5.224;2023-03-01T10:56:12;102946.0;;;8.44;43.79
36834;BME280;48003;52.084;5.224;2023-03-01T10:59:28;102938.00000000001;;;8.48;43.18
36834;BME280;48003;52.084;5.224;2023-03-01T11:01:26;102929.0;;;8.56;43.57
36834;BME280;48003;52.084;5.224;2023-03-01T11:03:10;102926.0;;;8.74;43.21